North Hibbing, Minnesota
Current Conditions -  °F | °C
As of 8:53 AM on Friday 19 Dec 2014 (Local Time) from KHIB Reporting Station
Haze Haze  
Wind Chill: 11°   Ceiling: 400
Heat Index: 20°   Visibility: 6mi
Dew Point: 17°   Wind: 7mph
Humidity: 89%   Direction: 150°SSE
Pressure: 30.2"   Gusts: NA
Location:  47.4158°N, 93.0053°W
Report Text: KHIB 191453Z AUTO 15006KT 6SM BR OVC004 M07/M08 A3020 RMK AO2 SLP251 60000 T10671083 53003
Loading
Personal Weather Stations






























Interactive Weather Map New forecast layout! Learn more

10-Day Weather Forecast

Advertisements
Track Severe Weather on mobile